Time;durP1;ratioP1;P1;durP2;ratioP2;P2;SDS_P1;SDS_P2;PMS_P1;PMS_P2;Temp;Humidity;BMP_temperature;BMP_pressure;BME280_temperature;BME280_humidity;BME280_pressure;Samples;Min_cycle;Max_cycle;Signal;HPM_P1;HPM_P2
2021/10/31 00:02:06;;;;;;;14.90;2.78;;;;;;;;;;5031708;28;20068;-66
2021/10/31 00:04:33;;;;;;;14.18;2.28;;;;;;;;;;5048046;28;20048;-66
2021/10/31 00:06:59;;;;;;;23.20;2.83;;;30.60;56.90;;;;;;5047872;28;20060;-65
2021/10/31 00:09:25;;;;;;;9.43;2.40;;;;;;;;;;5051468;28;20021;-66
2021/10/31 00:11:52;;;;;;;21.02;2.80;;;31.60;38.20;;;;;;5051552;28;20506;-67
2021/10/31 00:14:19;;;;;;;20.58;2.72;;;31.70;42.50;;;;;;5034505;28;20037;-66
2021/10/31 00:16:45;;;;;;;13.50;3.10;;;;;;;;;;5051047;28;20025;-63
2021/10/31 00:19:12;;;;;;;20.45;3.28;;;31.50;69.80;;;;;;5051669;28;20028;-64
2021/10/31 00:21:38;;;;;;;26.55;3.53;;;31.30;73.90;;;;;;5052975;28;20029;-64
2021/10/31 00:24:05;;;;;;;17.80;2.90;;;31.40;74.60;;;;;;5050957;28;20025;-67
2021/10/31 00:26:31;;;;;;;17.83;2.75;;;31.10;76.00;;;;;;5050485;28;20368;-65
2021/10/31 00:28:58;;;;;;;16.50;2.65;;;31.80;45.20;;;;;;5057802;28;20028;-65
2021/10/31 00:31:27;;;;;;;10.45;2.15;;;31.00;75.40;;;;;;5064336;28;20032;-61
2021/10/31 00:33:53;;;;;;;15.93;1.90;;;30.90;41.00;;;;;;5050771;28;20418;-66
2021/10/31 00:36:19;;;;;;;20.50;2.30;;;31.00;35.60;;;;;;5049440;28;20080;-66
2021/10/31 00:38:46;;;;;;;17.27;2.63;;;30.90;36.00;;;;;;5050005;28;20100;-65
2021/10/31 00:41:13;;;;;;;30.42;3.22;;;30.80;36.40;;;;;;5049906;28;20291;-66
2021/10/31 00:43:41;;;;;;;23.05;2.85;;;30.70;36.90;;;;;;5050557;28;20069;-63
2021/10/31 00:46:07;;;;;;;28.63;4.53;;;30.60;37.40;;;;;;5051599;28;20101;-62
2021/10/31 00:48:34;;;;;;;21.77;3.85;;;30.50;37.90;;;;;;5052489;28;20095;-65
2021/10/31 00:51:00;;;;;;;20.02;4.00;;;30.40;38.50;;;;;;5034255;28;20086;-65
2021/10/31 00:53:27;;;;;;;27.67;5.15;;;30.40;38.80;;;;;;5035793;28;20478;-66
2021/10/31 00:55:54;;;;;;;24.02;3.65;;;;;;;;;;5051138;28;20033;-64
2021/10/31 00:58:20;;;;;;;43.65;4.88;;;30.20;40.10;;;;;;5051444;28;20096;-65
2021/10/31 01:00:47;;;;;;;42.88;5.53;;;;;;;;;;5050221;28;20531;-65
2021/10/31 01:03:14;;;;;;;53.30;5.75;;;29.90;53.00;;;;;;5050344;28;20049;-65
2021/10/31 01:05:47;;;;;;;27.33;5.93;;;29.90;51.70;;;;;;5051384;28;20036;-65
2021/10/31 01:08:35;;;;;;;35.97;5.95;;;29.90;40.50;;;;;;5051372;28;20545;-67
2021/10/31 01:11:04;;;;;;;39.53;5.65;;;29.80;40.70;;;;;;5050836;28;20617;-64
2021/10/31 01:13:34;;;;;;;28.40;5.32;;;29.70;40.90;;;;;;5051222;28;20095;-65
2021/10/31 01:16:13;;;;;;;38.15;4.90;;;29.60;40.80;;;;;;5051199;28;20085;-67
2021/10/31 01:18:52;;;;;;;40.17;5.00;;;29.60;41.00;;;;;;5050729;28;20084;-65
2021/10/31 01:21:49;;;;;;;31.65;5.57;;;29.50;40.90;;;;;;5050567;28;20534;-66
2021/10/31 01:24:24;;;;;;;38.13;5.35;;;29.30;40.60;;;;;;5049429;28;20167;-67
2021/10/31 01:27:01;;;;;;;23.10;5.25;;;29.30;41.00;;;;;;5050581;28;20076;-66
2021/10/31 01:29:37;;;;;;;28.75;5.20;;;29.30;40.90;;;;;;5062702;28;20072;-64
2021/10/31 01:32:27;;;;;;;25.88;5.53;;;29.20;78.90;;;;;;5051003;28;20511;-65
2021/10/31 01:35:18;;;;;;;40.63;6.05;;;29.10;44.50;;;;;;5050465;28;20171;-66
2021/10/31 01:38:07;;;;;;;33.53;5.90;;;29.10;40.40;;;;;;5050695;28;20149;-66
2021/10/31 01:40:48;;;;;;;28.83;6.05;;;29.00;40.60;;;;;;5052184;28;20077;-65
2021/10/31 01:43:40;;;;;;;36.88;5.90;;;28.90;40.80;;;;;;5049594;28;20112;-65
2021/10/31 01:46:41;;;;;;;32.85;6.93;;;28.90;41.50;;;;;;5035830;28;20163;-65
2021/10/31 01:49:10;;;;;;;41.38;6.38;;;28.80;42.00;;;;;;5033708;28;20068;-66
2021/10/31 01:51:45;;;;;;;44.83;6.55;;;28.70;42.80;;;;;;5052175;28;20100;-66
2021/10/31 01:54:19;;;;;;;45.33;6.78;;;28.70;43.30;;;;;;5017921;28;20073;-66
2021/10/31 01:56:51;;;;;;;54.05;5.70;;;28.60;53.80;;;;;;5050265;28;20029;-65
2021/10/31 01:59:26;;;;;;;30.40;4.30;;;28.50;44.60;;;;;;5049981;28;20079;-66
2021/10/31 02:01:54;;;;;;;29.88;4.50;;;28.50;45.60;;;;;;5033929;28;20077;-67
2021/10/31 02:04:24;;;;;;;33.72;4.07;;;28.40;45.40;;;;;;5049313;28;20105;-67
2021/10/31 02:06:52;;;;;;;29.20;3.85;;;28.30;45.60;;;;;;5050717;28;20069;-67
2021/10/31 02:09:22;;;;;;;25.25;4.45;;;28.30;45.80;;;;;;5049144;28;20076;-65
2021/10/31 02:11:49;;;;;;;26.08;4.13;;;28.20;46.10;;;;;;5016450;28;20094;-66
2021/10/31 02:14:17;;;;;;;24.52;4.88;;;28.20;50.60;;;;;;5050079;28;20509;-64
2021/10/31 02:16:45;;;;;;;19.52;4.03;;;28.10;45.90;;;;;;5050894;28;20182;-66
2021/10/31 02:19:27;;;;;;;24.67;3.80;;;28.10;45.90;;;;;;5049230;28;20149;-71
2021/10/31 02:21:59;;;;;;;29.73;4.05;;;28.00;46.00;;;;;;5048885;28;20077;-67
2021/10/31 02:24:26;;;;;;;17.02;3.20;;;27.90;45.90;;;;;;5051128;28;20097;-68
2021/10/31 02:26:53;;;;;;;23.77;3.10;;;27.80;46.10;;;;;;5050047;28;20129;-67
2021/10/31 02:29:19;;;;;;;16.85;3.00;;;27.80;46.40;;;;;;5035616;28;20072;-69
2021/10/31 02:31:46;;;;;;;18.25;4.22;;;27.70;46.70;;;;;;5050030;28;20160;-64
2021/10/31 02:34:13;;;;;;;30.95;5.05;;;27.70;47.30;;;;;;5048554;28;20144;-70
2021/10/31 02:36:39;;;;;;;20.05;5.07;;;27.70;48.30;;;;;;5049586;28;20135;-65
2021/10/31 02:39:07;;;;;;;19.85;5.10;;;27.60;48.70;;;;;;5049248;28;20073;-65
2021/10/31 02:41:36;;;;;;;23.85;6.00;;;27.50;49.60;;;;;;5032373;28;20082;-67
2021/10/31 02:44:03;;;;;;;18.45;4.10;;;27.50;50.10;;;;;;5048495;28;20428;-65
2021/10/31 02:46:32;;;;;;;17.70;3.58;;;27.40;50.70;;;;;;5049908;28;20104;-67
2021/10/31 02:48:59;;;;;;;18.48;3.83;;;27.30;51.70;;;;;;5049469;28;20073;-66
2021/10/31 02:51:33;;;;;;;24.80;4.57;;;27.30;52.30;;;;;;5031984;28;20070;-68
2021/10/31 02:54:09;;;;;;;31.10;4.25;;;27.20;53.00;;;;;;5048621;28;20077;-64
2021/10/31 02:56:46;;;;;;;17.05;4.28;;;27.20;53.90;;;;;;5033692;28;20163;-66
2021/10/31 02:59:47;;;;;;;24.23;4.50;;;27.10;54.40;;;;;;5034549;28;20065;-68
2021/10/31 03:02:14;;;;;;;20.27;4.68;;;27.00;54.90;;;;;;5032732;28;20436;-65
2021/10/31 03:04:41;;;;;;;22.20;4.07;;;27.00;55.60;;;;;;5049080;28;20113;-67
2021/10/31 03:07:08;;;;;;;15.80;4.43;;;27.00;56.20;;;;;;5049637;28;20211;-67
2021/10/31 03:09:35;;;;;;;21.50;5.03;;;26.90;56.80;;;;;;5050300;28;20382;-67
2021/10/31 03:12:03;;;;;;;26.77;4.78;;;27.00;95.00;;;;;;5048602;28;20076;-67
2021/10/31 03:14:30;;;;;;;19.25;4.90;;;26.70;60.00;;;;;;5048750;28;20520;-66
2021/10/31 03:16:57;;;;;;;12.63;4.22;;;26.70;59.40;;;;;;5047811;28;20072;-65
2021/10/31 03:19:23;;;;;;;12.25;3.60;;;26.10;70.90;;;;;;5047903;28;20077;-65
2021/10/31 03:21:49;;;;;;;18.17;3.45;;;26.60;62.60;;;;;;5047088;28;20082;-66
2021/10/31 03:24:16;;;;;;;16.35;3.55;;;26.60;62.30;;;;;;5048413;28;20519;-66
2021/10/31 03:26:42;;;;;;;14.32;3.40;;;26.60;63.00;;;;;;5048225;28;20529;-64
2021/10/31 03:29:09;;;;;;;11.30;3.10;;;26.10;99.40;;;;;;5059288;28;20107;-65
2021/10/31 03:31:36;;;;;;;20.52;3.45;;;26.50;90.90;;;;;;5054713;28;20029;-66
2021/10/31 03:34:02;;;;;;;13.30;3.33;;;26.50;64.00;;;;;;5047489;28;20081;-66
2021/10/31 03:36:29;;;;;;;15.02;3.55;;;26.50;64.20;;;;;;5048907;28;20112;-65
2021/10/31 03:38:55;;;;;;;12.75;3.50;;;25.80;72.50;;;;;;5048816;28;20071;-65
2021/10/31 03:41:21;;;;;;;21.27;4.00;;;26.30;73.70;;;;;;5049900;28;20484;-65
2021/10/31 03:43:49;;;;;;;12.85;3.50;;;26.20;65.40;;;;;;5054451;28;20164;-68
2021/10/31 03:46:15;;;;;;;23.65;3.67;;;;;;;;;;5052597;28;20077;-67
2021/10/31 03:48:41;;;;;;;14.38;3.10;;;25.40;72.00;;;;;;5066305;28;20080;-65
2021/10/31 03:51:08;;;;;;;15.32;3.00;;;26.20;64.80;;;;;;5058855;28;20123;-65
2021/10/31 03:53:34;;;;;;;10.82;3.70;;;26.20;64.80;;;;;;5052878;28;20562;-68
2021/10/31 03:56:01;;;;;;;13.60;3.80;;;26.10;64.40;;;;;;5051873;28;20085;-68
2021/10/31 03:58:27;;;;;;;16.65;5.32;;;26.10;64.80;;;;;;5051857;28;20073;-66
2021/10/31 04:00:53;;;;;;;13.80;4.43;;;26.10;63.70;;;;;;5051745;28;20536;-65
2021/10/31 04:03:20;;;;;;;12.60;4.25;;;26.00;63.20;;;;;;5052354;28;20109;-65
2021/10/31 04:05:46;;;;;;;11.80;4.78;;;26.00;63.40;;;;;;5051357;28;20180;-67
2021/10/31 04:08:13;;;;;;;15.85;4.40;;;25.90;63.30;;;;;;5052665;28;20081;-66
2021/10/31 04:10:39;;;;;;;15.82;4.13;;;25.80;63.30;;;;;;5052467;28;20150;-66
2021/10/31 04:13:05;;;;;;;23.90;5.57;;;25.70;61.20;;;;;;5052140;28;20073;-67
2021/10/31 04:15:32;;;;;;;14.05;4.22;;;25.70;61.50;;;;;;5051942;28;20081;-67
2021/10/31 04:17:58;;;;;;;15.30;4.65;;;25.70;58.60;;;;;;5051821;28;20111;-64
2021/10/31 04:20:25;;;;;;;20.77;4.47;;;25.70;58.10;;;;;;5051481;28;20077;-64
2021/10/31 04:22:51;;;;;;;15.30;4.10;;;25.70;58.40;;;;;;5053050;28;20078;-66
2021/10/31 04:25:18;;;;;;;19.10;4.25;;;25.70;59.00;;;;;;5052957;28;20105;-66
2021/10/31 04:27:45;;;;;;;13.50;4.20;;;25.60;59.30;;;;;;5050166;28;20073;-69
2021/10/31 04:30:14;;;;;;;17.90;3.95;;;25.60;59.70;;;;;;5058908;28;20148;-63
2021/10/31 04:32:42;;;;;;;13.82;3.75;;;25.50;59.70;;;;;;5051033;28;20160;-66
2021/10/31 04:35:09;;;;;;;24.75;4.30;;;25.40;60.00;;;;;;5052347;28;20093;-67
2021/10/31 04:37:38;;;;;;;21.65;3.88;;;25.40;59.70;;;;;;5034223;28;20101;-66
2021/10/31 04:40:07;;;;;;;11.43;3.15;;;25.40;57.70;;;;;;5051808;28;20551;-66
2021/10/31 04:42:34;;;;;;;14.68;2.75;;;25.30;55.70;;;;;;5052174;28;20539;-65
2021/10/31 04:45:01;;;;;;;10.40;2.58;;;25.30;55.50;;;;;;5051703;28;20094;-65
2021/10/31 04:47:27;;;;;;;6.72;2.22;;;25.30;53.90;;;;;;5051400;28;20090;-66
2021/10/31 04:49:53;;;;;;;11.45;3.15;;;25.30;54.30;;;;;;5051369;28;20147;-66
2021/10/31 04:52:20;;;;;;;11.75;2.90;;;25.30;54.00;;;;;;5016478;28;20077;-66
2021/10/31 04:54:46;;;;;;;12.93;3.35;;;25.30;54.50;;;;;;5050255;28;20078;-65
2021/10/31 04:57:13;;;;;;;20.48;4.47;;;25.20;54.60;;;;;;5034861;28;20073;-66
2021/10/31 04:59:39;;;;;;;20.50;4.82;;;25.20;54.50;;;;;;5050632;28;20077;-65
2021/10/31 05:02:06;;;;;;;24.20;5.45;;;25.10;54.60;;;;;;5051354;28;20156;-66
2021/10/31 05:04:32;;;;;;;24.40;5.80;;;25.10;55.10;;;;;;5050115;28;20105;-66
2021/10/31 05:06:59;;;;;;;20.75;4.93;;;25.10;55.60;;;;;;5050853;28;20263;-67
2021/10/31 05:09:25;;;;;;;21.55;4.45;;;25.10;56.30;;;;;;5035078;28;20165;-66
2021/10/31 05:11:51;;;;;;;16.45;4.45;;;25.00;57.00;;;;;;5050362;28;20143;-66
2021/10/31 05:14:18;;;;;;;16.08;4.13;;;25.00;58.10;;;;;;5033746;28;20111;-67
2021/10/31 05:16:45;;;;;;;20.88;4.60;;;25.00;58.10;;;;;;5034329;28;20089;-65
2021/10/31 05:19:12;;;;;;;18.27;4.85;;;24.90;58.80;;;;;;5050828;28;20435;-66
2021/10/31 05:21:39;;;;;;;19.45;4.28;;;24.90;58.70;;;;;;5050895;28;20501;-66
2021/10/31 05:24:05;;;;;;;19.25;4.93;;;24.90;59.40;;;;;;5035268;28;20073;-66
2021/10/31 05:26:32;;;;;;;17.55;4.82;;;24.90;59.50;;;;;;5049993;28;20092;-67
2021/10/31 05:28:58;;;;;;;15.30;4.75;;;24.90;59.90;;;;;;5057066;28;20080;-66
2021/10/31 05:31:25;;;;;;;12.43;4.43;;;24.80;59.60;;;;;;5063492;28;20119;-68
2021/10/31 05:33:52;;;;;;;22.70;5.13;;;24.80;60.00;;;;;;5050992;28;20084;-66
2021/10/31 05:36:18;;;;;;;19.60;4.75;;;24.70;59.80;;;;;;5049673;28;20070;-66
2021/10/31 05:38:46;;;;;;;22.33;5.20;;;24.70;59.90;;;;;;5050964;28;20065;-64
2021/10/31 05:41:13;;;;;;;18.95;4.70;;;24.70;60.70;;;;;;5050724;28;20139;-66
2021/10/31 05:43:39;;;;;;;15.93;4.72;;;24.70;61.00;;;;;;5049914;28;20164;-65
2021/10/31 05:46:05;;;;;;;24.10;5.18;;;24.70;60.50;;;;;;5049769;28;20081;-65
2021/10/31 05:48:32;;;;;;;24.75;6.05;;;24.70;59.30;;;;;;5049783;28;20089;-66
2021/10/31 05:50:58;;;;;;;37.95;7.88;;;24.60;58.50;;;;;;5049313;28;20446;-65
2021/10/31 05:53:25;;;;;;;22.83;7.60;;;24.60;58.80;;;;;;5050522;28;20132;-65
2021/10/31 05:55:51;;;;;;;31.00;7.25;;;24.60;58.90;;;;;;5049434;28;20077;-66
2021/10/31 05:58:17;;;;;;;29.80;7.68;;;24.60;59.00;;;;;;5049376;28;20598;-65
2021/10/31 06:00:44;;;;;;;31.83;7.50;;;24.60;59.50;;;;;;5048221;28;20156;-66
2021/10/31 06:03:10;;;;;;;29.20;7.10;;;24.60;60.20;;;;;;5048656;28;20113;-67
2021/10/31 06:05:39;;;;;;;32.33;7.53;;;24.60;60.70;;;;;;5047241;28;20437;-65
2021/10/31 06:08:12;;;;;;;28.65;8.02;;;24.60;61.70;;;;;;5050051;28;20085;-65
2021/10/31 06:10:39;;;;;;;31.48;7.00;;;24.50;62.70;;;;;;5047980;28;20094;-65
2021/10/31 06:13:06;;;;;;;26.30;5.95;;;24.50;63.50;;;;;;5048226;28;20073;-65
2021/10/31 06:15:32;;;;;;;28.08;6.32;;;24.50;65.10;;;;;;5047385;28;20078;-65
2021/10/31 06:17:59;;;;;;;31.90;5.90;;;24.50;67.70;;;;;;5049472;28;20073;-66
2021/10/31 06:20:25;;;;;;;19.63;5.13;;;24.50;69.60;;;;;;5032866;28;20135;-66
2021/10/31 06:22:52;;;;;;;26.85;5.65;;;24.40;72.80;;;;;;5049582;28;20084;-67
2021/10/31 06:25:18;;;;;;;14.27;5.43;;;24.40;75.10;;;;;;5047588;28;20089;-65
2021/10/31 06:27:45;;;;;;;21.35;5.18;;;24.40;79.40;;;;;;5049779;28;20070;-68
2021/10/31 06:30:12;;;;;;;24.08;5.05;;;24.30;81.30;;;;;;5058175;28;20164;-68
2021/10/31 06:32:38;;;;;;;24.38;5.75;;;24.30;82.20;;;;;;5047968;28;20519;-66
2021/10/31 06:35:05;;;;;;;34.33;5.55;;;24.30;83.50;;;;;;5048809;28;20074;-67
2021/10/31 06:37:32;;;;;;;30.27;5.35;;;24.20;84.40;;;;;;5048922;28;20073;-67
2021/10/31 06:39:58;;;;;;;28.13;5.82;;;24.20;85.40;;;;;;5048348;28;20089;-66
2021/10/31 06:42:26;;;;;;;26.45;5.20;;;24.10;86.40;;;;;;5048990;28;20069;-66
2021/10/31 06:44:53;;;;;;;16.70;5.10;;;24.10;87.80;;;;;;5049697;28;20147;-65
2021/10/31 06:47:20;;;;;;;17.38;5.20;;;24.10;90.00;;;;;;5048096;28;20230;-66
2021/10/31 06:49:46;;;;;;;19.08;5.03;;;24.10;91.80;;;;;;5049025;28;20086;-66
2021/10/31 06:52:13;;;;;;;16.65;5.38;;;24.00;93.20;;;;;;5053527;28;20073;-65
2021/10/31 06:54:39;;;;;;;22.35;4.95;;;24.00;94.50;;;;;;5049583;28;20155;-65
2021/10/31 06:57:06;;;;;;;19.13;5.30;;;24.00;96.10;;;;;;5031937;28;20085;-65
2021/10/31 06:59:33;;;;;;;16.38;4.60;;;;;;;;;;5048904;28;20378;-66
2021/10/31 07:01:59;;;;;;;18.60;4.88;;;;;;;;;;5047958;28;20029;-67
2021/10/31 07:04:27;;;;;;;18.33;4.85;;;23.80;99.90;;;;;;5048407;28;20136;-65
2021/10/31 07:06:54;;;;;;;9.00;3.70;;;23.90;99.90;;;;;;5048842;28;20072;-65
2021/10/31 07:09:20;;;;;;;15.57;3.85;;;23.90;99.90;;;;;;5047067;28;20073;-66
2021/10/31 07:11:47;;;;;;;12.63;3.97;;;23.90;99.90;;;;;;5031043;28;20132;-66
2021/10/31 07:14:14;;;;;;;11.80;3.67;;;23.80;99.90;;;;;;5030763;28;20097;-67
2021/10/31 07:16:40;;;;;;;12.60;3.33;;;23.80;99.90;;;;;;5048613;28;20168;-66
2021/10/31 07:19:06;;;;;;;13.13;3.40;;;23.70;99.90;;;;;;5049806;28;20081;-67
2021/10/31 07:21:33;;;;;;;13.60;3.28;;;23.70;99.90;;;;;;5031038;28;20168;-66
2021/10/31 07:23:59;;;;;;;9.35;3.53;;;23.70;99.90;;;;;;5047734;28;20136;-63
2021/10/31 07:26:25;;;;;;;16.17;5.82;;;23.70;99.90;;;;;;5048336;28;20671;-65
2021/10/31 07:28:52;;;;;;;16.52;7.95;;;23.70;99.90;;;;;;5047721;28;20025;-66
2021/10/31 07:31:20;;;;;;;25.40;7.75;;;23.60;99.90;;;;;;5049195;28;20093;-65
2021/10/31 07:33:46;;;;;;;18.25;7.43;;;23.60;99.90;;;;;;5046830;28;20069;-64
2021/10/31 07:36:13;;;;;;;19.65;8.43;;;23.60;99.90;;;;;;5047262;28;20077;-66
2021/10/31 07:38:41;;;;;;;29.70;10.35;;;23.60;99.90;;;;;;5047814;28;20589;-66
2021/10/31 07:41:07;;;;;;;32.33;13.98;;;23.60;99.90;;;;;;5048848;28;20527;-65
2021/10/31 07:43:34;;;;;;;41.20;19.25;;;23.50;99.90;;;;;;5048322;28;20081;-67
2021/10/31 07:46:00;;;;;;;48.53;24.77;;;23.40;99.90;;;;;;5047435;28;20436;-64
2021/10/31 07:48:27;;;;;;;56.92;29.05;;;23.30;99.90;;;;;;5047161;28;20164;-66
2021/10/31 07:50:53;;;;;;;68.95;32.17;;;23.20;99.90;;;;;;5046862;28;20491;-65
2021/10/31 07:53:20;;;;;;;62.10;31.13;;;23.20;99.90;;;;;;5045183;28;20074;-65
2021/10/31 07:55:51;;;;;;;59.78;30.00;;;23.20;99.90;;;;;;5047924;28;20073;-66
2021/10/31 07:58:21;;;;;;;63.63;25.92;;;23.00;99.90;;;;;;5048398;28;20419;-65
2021/10/31 08:00:49;;;;;;;53.25;20.15;;;23.10;99.90;;;;;;5048051;28;20061;-65
2021/10/31 08:03:16;;;;;;;25.92;10.88;;;23.10;99.90;;;;;;5047934;28;20176;-66
2021/10/31 08:05:43;;;;;;;18.75;7.95;;;22.90;99.90;;;;;;5047038;28;20479;-66
2021/10/31 08:08:10;;;;;;;14.50;6.15;;;23.00;99.90;;;;;;5048303;28;20073;-65
2021/10/31 08:10:37;;;;;;;16.40;6.25;;;23.00;99.90;;;;;;5048570;28;20383;-64
2021/10/31 08:13:03;;;;;;;18.65;6.72;;;23.00;99.90;;;;;;5048775;28;21246;-64
2021/10/31 08:15:30;;;;;;;19.73;6.93;;;22.90;99.90;;;;;;5048140;28;20073;-66
2021/10/31 08:17:57;;;;;;;20.02;7.30;;;22.80;99.90;;;;;;5047449;28;20083;-67
2021/10/31 08:20:23;;;;;;;20.00;8.80;;;22.80;99.90;;;;;;5031077;28;20048;-64
2021/10/31 08:22:50;;;;;;;16.67;9.02;;;22.90;99.90;;;;;;5047436;28;20017;-65
2021/10/31 08:25:16;;;;;;;21.60;9.93;;;22.60;99.90;;;;;;5047063;28;20021;-64
2021/10/31 08:27:43;;;;;;;26.95;13.10;;;22.80;99.90;;;;;;5046789;28;20073;-64
2021/10/31 08:30:09;;;;;;;29.33;14.68;;;22.70;99.90;;;;;;5066339;28;20103;-64
2021/10/31 08:32:44;;;;;;;39.38;17.27;;;22.70;99.90;;;;;;5034396;28;20552;-65
2021/10/31 08:35:10;;;;;;;38.05;17.77;;;22.60;99.90;;;;;;5051297;28;20497;-62
2021/10/31 08:37:36;;;;;;;41.85;17.80;;;22.60;99.90;;;;;;5050341;28;20123;-65
2021/10/31 08:40:04;;;;;;;43.33;18.27;;;22.60;99.90;;;;;;5051108;28;20120;-66
2021/10/31 08:42:31;;;;;;;36.33;17.65;;;22.50;99.90;;;;;;5050864;28;20184;-64
2021/10/31 08:44:57;;;;;;;31.05;16.35;;;22.50;99.90;;;;;;5059064;28;20085;-64
2021/10/31 08:47:24;;;;;;;30.35;14.60;;;22.30;99.90;;;;;;5050805;28;20077;-64
2021/10/31 08:49:50;;;;;;;29.90;14.52;;;22.40;99.90;;;;;;5034502;28;20624;-63
2021/10/31 08:52:16;;;;;;;28.33;15.13;;;22.30;99.90;;;;;;5049781;28;20155;-64
2021/10/31 08:54:43;;;;;;;26.98;14.15;;;22.20;99.90;;;;;;5052853;28;20078;-63
2021/10/31 08:57:09;;;;;;;36.30;15.13;;;22.20;99.90;;;;;;5049554;28;20112;-63
2021/10/31 08:59:36;;;;;;;35.13;13.90;;;22.30;99.90;;;;;;5034452;28;20097;-66
2021/10/31 09:02:04;;;;;;;38.53;13.55;;;22.20;99.90;;;;;;5050203;28;20070;-65
2021/10/31 09:04:31;;;;;;;32.70;12.38;;;22.30;99.90;;;;;;5049510;28;20108;-65
2021/10/31 09:06:57;;;;;;;27.58;11.68;;;22.20;99.90;;;;;;5050597;28;20143;-65
2021/10/31 09:09:24;;;;;;;26.63;11.13;;;22.20;99.90;;;;;;5046798;28;20103;-67
2021/10/31 09:11:51;;;;;;;24.35;11.35;;;22.20;99.90;;;;;;5048936;28;20952;-65
2021/10/31 09:14:17;;;;;;;26.58;11.90;;;22.00;99.90;;;;;;5050934;28;20088;-65
2021/10/31 09:16:44;;;;;;;32.55;14.63;;;22.00;99.90;;;;;;5051001;28;20169;-66
2021/10/31 09:19:11;;;;;;;29.95;14.45;;;21.90;99.90;;;;;;5049954;28;20070;-64
2021/10/31 09:21:38;;;;;;;33.90;13.15;;;21.90;99.90;;;;;;5049179;28;20164;-63
2021/10/31 09:24:04;;;;;;;36.92;16.52;;;21.90;99.90;;;;;;5051095;28;20077;-65
2021/10/31 09:26:31;;;;;;;36.78;15.60;;;21.70;99.90;;;;;;5050348;28;20082;-66
2021/10/31 09:28:57;;;;;;;43.85;18.52;;;21.70;99.90;;;;;;5052834;28;20523;-64
2021/10/31 09:31:24;;;;;;;47.40;18.80;;;21.70;99.90;;;;;;5032777;28;20077;-60
2021/10/31 09:33:50;;;;;;;45.20;18.05;;;21.80;99.90;;;;;;5050254;28;20081;-62
2021/10/31 09:36:17;;;;;;;62.50;20.67;;;21.80;99.90;;;;;;5033173;28;20143;-62
2021/10/31 09:38:43;;;;;;;52.75;19.85;;;21.70;99.90;;;;;;5049521;28;20078;-62
2021/10/31 09:41:13;;;;;;;47.38;18.23;;;21.70;99.90;;;;;;5050340;28;20080;-60
2021/10/31 09:43:47;;;;;;;45.75;17.85;;;21.70;99.90;;;;;;5049929;28;20550;-62
2021/10/31 09:46:14;;;;;;;43.05;19.67;;;21.70;99.90;;;;;;5048853;28;20153;-61
2021/10/31 09:48:40;;;;;;;38.35;18.70;;;21.60;99.90;;;;;;5048317;28;20127;-58
2021/10/31 09:51:07;;;;;;;46.28;19.67;;;21.60;99.90;;;;;;5034614;28;20069;-61
2021/10/31 09:53:33;;;;;;;37.05;17.60;;;21.60;99.90;;;;;;5050003;28;20080;-58
2021/10/31 09:56:02;;;;;;;33.40;16.73;;;21.60;99.90;;;;;;5031941;28;20176;-59
2021/10/31 09:58:35;;;;;;;32.08;16.13;;;21.70;99.90;;;;;;5047021;28;20090;-59
2021/10/31 10:01:13;;;;;;;33.47;16.25;;;21.70;99.90;;;;;;5048915;28;20423;-60
2021/10/31 10:03:40;;;;;;;36.70;18.98;;;21.80;99.90;;;;;;5049399;28;20104;-59
2021/10/31 10:06:17;;;;;;;42.15;20.17;;;21.80;99.90;;;;;;5048554;28;20160;-59
2021/10/31 10:08:58;;;;;;;36.58;19.33;;;21.80;99.90;;;;;;5031767;28;20080;-60
2021/10/31 10:11:25;;;;;;;38.08;21.02;;;21.70;99.90;;;;;;5048177;28;20477;-60
2021/10/31 10:13:52;;;;;;;38.28;20.25;;;21.70;99.90;;;;;;5045447;28;20069;-61
2021/10/31 10:16:29;;;;;;;32.65;17.58;;;21.70;99.90;;;;;;5046055;28;20113;-59
2021/10/31 10:18:56;;;;;;;33.65;16.90;;;21.70;99.90;;;;;;5048985;28;20084;-61
2021/10/31 10:21:29;;;;;;;36.92;18.48;;;21.60;99.90;;;;;;5031296;28;20070;-61
2021/10/31 10:23:57;;;;;;;32.05;17.45;;;21.70;99.90;;;;;;5049804;28;20078;-59
2021/10/31 10:26:27;;;;;;;36.75;20.63;;;21.80;99.90;;;;;;5048986;28;20082;-61
2021/10/31 10:29:00;;;;;;;42.72;19.92;;;21.80;99.90;;;;;;5053185;28;20069;-59
2021/10/31 10:31:27;;;;;;;51.47;20.85;;;21.70;99.90;;;;;;5048585;28;20076;-61
2021/10/31 10:33:54;;;;;;;41.38;21.65;;;21.70;99.90;;;;;;5047673;28;20077;-60
2021/10/31 10:36:21;;;;;;;33.70;17.83;;;21.70;99.90;;;;;;5047667;28;20164;-62
2021/10/31 10:39:00;;;;;;;42.83;22.80;;;21.70;99.90;;;;;;5048708;28;20508;-60
2021/10/31 10:41:43;;;;;;;42.92;23.50;;;21.70;99.90;;;;;;5047870;28;20093;-62
2021/10/31 10:44:22;;;;;;;46.17;23.55;;;21.70;99.90;;;;;;5046592;28;20134;-59
2021/10/31 10:47:04;;;;;;;38.90;20.80;;;21.70;99.90;;;;;;5048077;28;20119;-62
2021/10/31 10:49:34;;;;;;;52.67;21.15;;;21.70;99.90;;;;;;5049439;28;20076;-60
2021/10/31 10:52:23;;;;;;;30.13;18.80;;;21.60;99.90;;;;;;5047367;28;20077;-57
2021/10/31 10:54:55;;;;;;;35.97;20.20;;;21.60;99.90;;;;;;5047141;28;20129;-60
2021/10/31 10:57:23;;;;;;;36.88;18.60;;;21.60;99.90;;;;;;5030988;28;20080;-60
2021/10/31 10:59:59;;;;;;;32.33;20.13;;;21.60;99.90;;;;;;5030964;28;20510;-62
2021/10/31 11:02:27;;;;;;;27.92;18.23;;;21.60;99.90;;;;;;5047858;28;20119;-60
2021/10/31 11:04:56;;;;;;;25.85;16.60;;;21.60;99.90;;;;;;5029720;28;20113;-57
2021/10/31 11:07:35;;;;;;;32.55;19.17;;;21.50;99.90;;;;;;5046723;28;20099;-62
2021/10/31 11:10:12;;;;;;;30.67;17.73;;;21.50;99.90;;;;;;5049193;28;20527;-61
2021/10/31 11:12:40;;;;;;;28.40;17.15;;;21.50;99.90;;;;;;5044549;28;20095;-60
2021/10/31 11:15:10;;;;;;;30.92;18.20;;;21.50;99.90;;;;;;5026874;28;20184;-57
2021/10/31 11:17:38;;;;;;;66.95;22.08;;;21.50;99.90;;;;;;5043648;28;20593;-58
2021/10/31 11:20:08;;;;;;;35.10;20.10;;;21.50;99.90;;;;;;5044986;28;20138;-59
2021/10/31 11:22:36;;;;;;;36.40;18.40;;;21.50;99.90;;;;;;5042932;28;20416;-59
2021/10/31 11:25:04;;;;;;;52.67;20.88;;;21.60;99.90;;;;;;5042135;28;20443;-59
2021/10/31 11:27:31;;;;;;;35.40;18.90;;;21.60;99.90;;;;;;5044139;28;20081;-57
2021/10/31 11:29:59;;;;;;;31.50;18.05;;;21.50;99.90;;;;;;5044213;28;20219;-59
2021/10/31 11:32:28;;;;;;;68.47;18.70;;;21.40;99.90;;;;;;5044300;28;20168;-59
2021/10/31 11:34:56;;;;;;;34.78;17.08;;;21.40;99.90;;;;;;5026385;28;20078;-60
2021/10/31 11:37:45;;;;;;;32.50;15.48;;;21.30;99.90;;;;;;5041602;28;20077;-61
2021/10/31 11:40:13;;;;;;;26.58;15.95;;;21.20;99.90;;;;;;5047615;28;20128;-60
2021/10/31 11:42:46;;;;;;;29.98;17.85;;;21.10;99.90;;;;;;5047421;28;20073;-59
2021/10/31 11:45:24;;;;;;;47.10;18.60;;;21.10;99.90;;;;;;5031389;28;20112;-59
2021/10/31 12:01:37;;;;;;;52.30;19.48;;;21.10;99.90;;;;;;5106803;27;20951;-57
2021/10/31 12:04:29;;;;;;;56.78;20.63;;;20.90;99.90;;;;;;5086041;28;20167;-59
2021/10/31 12:06:56;;;;;;;84.90;23.25;;;20.90;99.90;;;;;;5076012;28;20095;-60
2021/10/31 12:09:25;;;;;;;34.92;21.00;;;20.80;99.90;;;;;;5087215;28;20096;-58
2021/10/31 12:11:54;;;;;;;74.32;28.25;;;20.60;99.90;;;;;;5053850;28;20095;-60
2021/10/31 12:14:47;;;;;;;84.93;33.10;;;20.60;99.90;;;;;;5088649;28;20236;-61
2021/10/31 12:17:15;;;;;;;86.25;33.30;;;20.60;99.90;;;;;;5084310;28;20542;-57
2021/10/31 12:19:45;;;;;;;59.55;30.40;;;20.60;99.90;;;;;;5105200;28;20099;-58
2021/10/31 12:22:33;;;;;;;71.57;28.85;;;20.60;99.90;;;;;;5070580;28;20080;-61
2021/10/31 12:25:11;;;;;;;53.08;27.25;;;20.60;99.90;;;;;;5105022;28;20069;-61
2021/10/31 12:27:46;;;;;;;56.22;24.90;;;20.60;99.90;;;;;;5069568;28;20127;-58
2021/10/31 12:30:28;;;;;;;44.90;25.48;;;20.50;99.90;;;;;;5054056;28;20095;-61
2021/10/31 12:33:07;;;;;;;43.28;24.25;;;20.50;99.90;;;;;;5086330;28;20133;-57
2021/10/31 12:35:34;;;;;;;52.80;25.65;;;20.50;99.90;;;;;;5086476;28;20072;-57
2021/10/31 12:38:16;;;;;;;40.17;22.42;;;20.40;99.90;;;;;;5086817;28;20081;-58
2021/10/31 12:41:03;;;;;;;42.13;24.17;;;20.30;99.90;;;;;;5086451;28;20170;-61
2021/10/31 12:43:52;;;;;;;46.08;24.55;;;20.40;99.90;;;;;;5058695;28;20118;-56
2021/10/31 12:46:31;;;;;;;42.72;22.85;;;20.20;99.90;;;;;;5085986;28;20077;-61
2021/10/31 12:49:07;;;;;;;36.42;20.85;;;20.20;99.90;;;;;;5104122;28;20618;-57
2021/10/31 12:52:04;;;;;;;34.28;18.15;;;20.10;99.90;;;;;;5080702;28;20095;-59
2021/10/31 12:54:37;;;;;;;33.60;17.30;;;20.10;99.90;;;;;;5084056;28;20561;-58
2021/10/31 12:57:12;;;;;;;30.30;16.23;;;20.00;99.90;;;;;;5068942;28;20093;-58
2021/10/31 12:59:49;;;;;;;30.13;15.38;;;20.00;99.90;;;;;;5084584;28;20114;-61
2021/10/31 13:02:21;;;;;;;27.00;15.35;;;20.00;99.90;;;;;;5052519;28;20097;-58